Mercer County (BLF)

 

Airport Diagram
No Airport Diagram Available
Current Weather/Forecast (LIFR Conditions)
METAR KBLF 251652Z AUTO 08006KT M1/4SM -RA FG VV002 04/04 A2993 RMK AO2 RAE1558B05E32B50 SLP141 P0001 T00440044
TAF KBLF 251421Z 2514/2612 00000KT 1/4SM -RA FG VV003 FM251800 VRB03KT 2SM -RA BR OVC004 FM252000 12005KT 3SM -RA OVC005 WS020/20030KT FM260100 17006KT 1SM -RA BR OVC002 WS020/22035KT FM261000 22006KT 3SM BR OVC008 WS020/25040KT

Airport Information

All Charts
General
Chart Name View
TAKEOFF MINIMUMS
ALTERNATE MINIMUMS
TAKEOFF MINIMUMS
ALTERNATE MINIMUMS

Departures
Chart Name Download
OBERS FOUR
OBERS FOUR

Approaches
Chart Name Download
ILS OR LOC RWY 23
RNAV (GPS) RWY 05
RNAV (GPS) RWY 23
VOR RWY 23
ILS OR LOC RWY 23
RNAV (GPS) RWY 05
RNAV (GPS) RWY 23
VOR RWY 23


Airport Statistics
Departures Arrivals Local
All Collected Stats since June 2016: 13 18 0
2021 Stats: 0 0 0
January Stats: 0 0 0

Inbound Traffic (Arrivals) - 0

No inbound traffic.


Outbound Traffic (Departures) - 0

No outbound traffic.


Local Traffic (Pattern) - 0

No local traffic.